sensor_id;sensor_type;location;lat;lon;timestamp;pressure;altitude;pressure_sealevel;temperature;humidity
33265;BME280;31404;53.974;-1.086;2023-02-19T00:00:39;101743.04;;;6.43;100.00
33265;BME280;31404;53.974;-1.086;2023-02-19T00:05:34;101749.40;;;6.36;100.00
33265;BME280;31404;53.974;-1.086;2023-02-19T00:10:34;101745.87;;;6.34;100.00
33265;BME280;31404;53.974;-1.086;2023-02-19T00:15:35;101748.35;;;6.14;100.00
33265;BME280;31404;53.974;-1.086;2023-02-19T00:25:36;101761.93;;;6.57;100.00
33265;BME280;31404;53.974;-1.086;2023-02-19T00:30:35;101766.69;;;6.18;100.00
33265;BME280;31404;53.974;-1.086;2023-02-19T00:35:36;101779.15;;;6.37;100.00
33265;BME280;31404;53.974;-1.086;2023-02-19T00:40:34;101780.35;;;6.37;100.00
33265;BME280;31404;53.974;-1.086;2023-02-19T00:45:34;101772.79;;;6.02;100.00
33265;BME280;31404;53.974;-1.086;2023-02-19T00:50:35;101767.23;;;5.87;100.00
33265;BME280;31404;53.974;-1.086;2023-02-19T00:55:35;101777.86;;;5.59;100.00
33265;BME280;31404;53.974;-1.086;2023-02-19T01:00:34;101793.13;;;6.25;100.00
33265;BME280;31404;53.974;-1.086;2023-02-19T01:05:35;101796.93;;;6.23;100.00
33265;BME280;31404;53.974;-1.086;2023-02-19T01:10:34;101818.96;;;5.89;100.00
33265;BME280;31404;53.974;-1.086;2023-02-19T01:15:34;101834.99;;;5.78;100.00
33265;BME280;31404;53.974;-1.086;2023-02-19T01:20:37;101849.72;;;6.62;100.00
33265;BME280;31404;53.974;-1.086;2023-02-19T01:25:37;101863.22;;;6.33;100.00
33265;BME280;31404;53.974;-1.086;2023-02-19T01:30:34;101872.44;;;5.80;100.00
33265;BME280;31404;53.974;-1.086;2023-02-19T01:40:34;101881.99;;;6.36;100.00
33265;BME280;31404;53.974;-1.086;2023-02-19T01:45:36;101892.47;;;6.53;100.00
33265;BME280;31404;53.974;-1.086;2023-02-19T01:50:37;101895.77;;;6.89;100.00
33265;BME280;31404;53.974;-1.086;2023-02-19T01:55:34;101903.70;;;7.46;100.00
33265;BME280;31404;53.974;-1.086;2023-02-19T02:00:35;101907.39;;;7.53;100.00
33265;BME280;31404;53.974;-1.086;2023-02-19T02:10:35;101947.57;;;6.58;100.00
33265;BME280;31404;53.974;-1.086;2023-02-19T02:30:38;101972.97;;;5.70;100.00
33265;BME280;31404;53.974;-1.086;2023-02-19T02:40:35;101987.60;;;6.33;100.00
33265;BME280;31404;53.974;-1.086;2023-02-19T02:45:35;101997.28;;;6.45;100.00
33265;BME280;31404;53.974;-1.086;2023-02-19T02:50:37;102011.14;;;7.35;100.00
33265;BME280;31404;53.974;-1.086;2023-02-19T02:55:37;102044.80;;;6.39;100.00
33265;BME280;31404;53.974;-1.086;2023-02-19T03:00:36;102055.93;;;5.47;100.00
33265;BME280;31404;53.974;-1.086;2023-02-19T03:05:34;102065.42;;;5.75;100.00
33265;BME280;31404;53.974;-1.086;2023-02-19T03:20:38;102094.96;;;5.59;100.00
33265;BME280;31404;53.974;-1.086;2023-02-19T03:25:36;102101.16;;;5.40;100.00
33265;BME280;31404;53.974;-1.086;2023-02-19T03:35:39;102125.23;;;4.31;100.00
33265;BME280;31404;53.974;-1.086;2023-02-19T04:05:38;102166.91;;;6.51;100.00
33265;BME280;31404;53.974;-1.086;2023-02-19T04:10:36;102174.55;;;5.06;100.00
33265;BME280;31404;53.974;-1.086;2023-02-19T04:15:36;102180.51;;;4.66;100.00
33265;BME280;31404;53.974;-1.086;2023-02-19T04:20:38;102198.50;;;4.57;100.00
33265;BME280;31404;53.974;-1.086;2023-02-19T04:25:35;102211.90;;;4.79;100.00
33265;BME280;31404;53.974;-1.086;2023-02-19T04:30:34;102221.04;;;4.98;100.00
33265;BME280;31404;53.974;-1.086;2023-02-19T04:35:34;102222.96;;;5.06;100.00
33265;BME280;31404;53.974;-1.086;2023-02-19T04:40:34;102235.25;;;4.77;100.00
33265;BME280;31404;53.974;-1.086;2023-02-19T04:45:36;102248.10;;;5.33;100.00
33265;BME280;31404;53.974;-1.086;2023-02-19T04:50:37;102257.55;;;6.24;100.00
33265;BME280;31404;53.974;-1.086;2023-02-19T05:00:34;102278.02;;;6.43;100.00
33265;BME280;31404;53.974;-1.086;2023-02-19T05:05:34;102285.26;;;7.07;100.00
33265;BME280;31404;53.974;-1.086;2023-02-19T05:10:34;102301.32;;;6.03;100.00
33265;BME280;31404;53.974;-1.086;2023-02-19T05:15:34;102291.08;;;6.53;100.00
33265;BME280;31404;53.974;-1.086;2023-02-19T05:20:35;102299.89;;;6.91;100.00
33265;BME280;31404;53.974;-1.086;2023-02-19T05:25:35;102309.12;;;7.76;100.00
33265;BME280;31404;53.974;-1.086;2023-02-19T05:30:34;102327.99;;;8.04;100.00
33265;BME280;31404;53.974;-1.086;2023-02-19T05:40:35;102335.43;;;8.22;100.00
33265;BME280;31404;53.974;-1.086;2023-02-19T05:45:35;102348.51;;;6.66;100.00
33265;BME280;31404;53.974;-1.086;2023-02-19T05:50:35;102355.44;;;5.17;100.00
33265;BME280;31404;53.974;-1.086;2023-02-19T05:55:35;102374.27;;;5.79;100.00
33265;BME280;31404;53.974;-1.086;2023-02-19T06:00:35;102396.18;;;4.07;100.00
33265;BME280;31404;53.974;-1.086;2023-02-19T06:05:36;102407.35;;;4.77;100.00
33265;BME280;31404;53.974;-1.086;2023-02-19T06:10:35;102418.35;;;5.48;100.00
33265;BME280;31404;53.974;-1.086;2023-02-19T06:15:35;102419.52;;;6.35;100.00
33265;BME280;31404;53.974;-1.086;2023-02-19T06:20:34;102413.35;;;5.07;100.00
33265;BME280;31404;53.974;-1.086;2023-02-19T06:25:38;102398.92;;;6.55;100.00
33265;BME280;31404;53.974;-1.086;2023-02-19T06:30:34;102399.42;;;7.04;100.00
33265;BME280;31404;53.974;-1.086;2023-02-19T06:35:35;102409.13;;;6.55;100.00
33265;BME280;31404;53.974;-1.086;2023-02-19T06:40:34;102397.52;;;6.28;100.00
33265;BME280;31404;53.974;-1.086;2023-02-19T06:45:34;102376.08;;;7.60;100.00
33265;BME280;31404;53.974;-1.086;2023-02-19T06:50:34;102354.91;;;8.92;100.00
33265;BME280;31404;53.974;-1.086;2023-02-19T06:55:34;102359.06;;;9.17;99.42
33265;BME280;31404;53.974;-1.086;2023-02-19T07:00:34;102368.69;;;8.97;97.90
33265;BME280;31404;53.974;-1.086;2023-02-19T07:05:34;102371.53;;;8.29;100.00
33265;BME280;31404;53.974;-1.086;2023-02-19T07:10:34;102386.12;;;7.63;100.00
33265;BME280;31404;53.974;-1.086;2023-02-19T07:15:34;102399.41;;;7.95;100.00
33265;BME280;31404;53.974;-1.086;2023-02-19T07:20:35;102404.04;;;8.57;99.04
33265;BME280;31404;53.974;-1.086;2023-02-19T07:25:36;102416.55;;;9.25;96.90
33265;BME280;31404;53.974;-1.086;2023-02-19T07:30:34;102427.65;;;9.13;95.11
33265;BME280;31404;53.974;-1.086;2023-02-19T07:35:34;102437.24;;;7.12;100.00
33265;BME280;31404;53.974;-1.086;2023-02-19T07:40:34;102450.11;;;5.53;100.00
33265;BME280;31404;53.974;-1.086;2023-02-19T07:45:34;102457.98;;;6.93;100.00
33265;BME280;31404;53.974;-1.086;2023-02-19T07:50:34;102470.91;;;7.46;100.00
33265;BME280;31404;53.974;-1.086;2023-02-19T07:55:34;102478.29;;;7.44;100.00
33265;BME280;31404;53.974;-1.086;2023-02-19T08:00:35;102474.24;;;7.50;100.00
33265;BME280;31404;53.974;-1.086;2023-02-19T08:05:37;102485.62;;;5.54;100.00
33265;BME280;31404;53.974;-1.086;2023-02-19T08:10:35;102488.71;;;5.87;100.00
33265;BME280;31404;53.974;-1.086;2023-02-19T08:15:34;102487.94;;;6.49;100.00
33265;BME280;31404;53.974;-1.086;2023-02-19T08:20:34;102486.23;;;5.87;100.00
33265;BME280;31404;53.974;-1.086;2023-02-19T08:25:35;102482.72;;;6.83;100.00
33265;BME280;31404;53.974;-1.086;2023-02-19T08:30:36;102471.60;;;7.52;96.71
33265;BME280;31404;53.974;-1.086;2023-02-19T08:35:35;102470.61;;;7.00;98.73
33265;BME280;31404;53.974;-1.086;2023-02-19T08:40:37;102458.42;;;6.47;100.00
33265;BME280;31404;53.974;-1.086;2023-02-19T08:45:29;102463.59;;;6.16;100.00
33265;BME280;31404;53.974;-1.086;2023-02-19T08:50:34;102473.17;;;6.32;100.00
33265;BME280;31404;53.974;-1.086;2023-02-19T08:55:36;102487.28;;;5.98;100.00
33265;BME280;31404;53.974;-1.086;2023-02-19T09:00:34;102495.06;;;5.90;100.00
33265;BME280;31404;53.974;-1.086;2023-02-19T09:05:35;102498.87;;;5.27;100.00
33265;BME280;31404;53.974;-1.086;2023-02-19T09:10:35;102468.36;;;7.22;99.46
33265;BME280;31404;53.974;-1.086;2023-02-19T09:15:36;102458.46;;;7.05;97.45
33265;BME280;31404;53.974;-1.086;2023-02-19T09:20:35;102488.50;;;6.48;100.00
33265;BME280;31404;53.974;-1.086;2023-02-19T09:25:35;102485.71;;;6.05;100.00
33265;BME280;31404;53.974;-1.086;2023-02-19T09:30:35;102489.68;;;5.93;100.00
33265;BME280;31404;53.974;-1.086;2023-02-19T09:40:36;102516.26;;;5.47;100.00
33265;BME280;31404;53.974;-1.086;2023-02-19T09:45:35;102503.77;;;5.27;100.00
33265;BME280;31404;53.974;-1.086;2023-02-19T09:55:37;102508.90;;;5.55;100.00
33265;BME280;31404;53.974;-1.086;2023-02-19T10:00:35;102505.99;;;5.50;100.00
33265;BME280;31404;53.974;-1.086;2023-02-19T10:05:37;102498.34;;;5.35;100.00
33265;BME280;31404;53.974;-1.086;2023-02-19T10:10:35;102490.40;;;5.41;100.00
33265;BME280;31404;53.974;-1.086;2023-02-19T10:15:38;102490.20;;;6.91;100.00
33265;BME280;31404;53.974;-1.086;2023-02-19T10:20:35;102496.85;;;5.16;100.00
33265;BME280;31404;53.974;-1.086;2023-02-19T10:25:40;102496.55;;;6.35;100.00
33265;BME280;31404;53.974;-1.086;2023-02-19T10:30:35;102497.47;;;5.99;100.00
33265;BME280;31404;53.974;-1.086;2023-02-19T10:35:36;102502.27;;;4.16;100.00
33265;BME280;31404;53.974;-1.086;2023-02-19T10:40:34;102508.25;;;5.15;100.00
33265;BME280;31404;53.974;-1.086;2023-02-19T10:50:35;102519.46;;;5.83;100.00
33265;BME280;31404;53.974;-1.086;2023-02-19T10:55:35;102518.79;;;6.37;100.00
33265;BME280;31404;53.974;-1.086;2023-02-19T11:00:35;102514.81;;;5.45;100.00
33265;BME280;31404;53.974;-1.086;2023-02-19T11:05:36;102507.82;;;6.44;100.00
33265;BME280;31404;53.974;-1.086;2023-02-19T11:15:36;102500.61;;;4.62;100.00
33265;BME280;31404;53.974;-1.086;2023-02-19T11:20:34;102496.74;;;5.36;100.00
33265;BME280;31404;53.974;-1.086;2023-02-19T11:25:35;102505.81;;;4.95;100.00
33265;BME280;31404;53.974;-1.086;2023-02-19T11:30:37;102505.82;;;5.11;100.00
33265;BME280;31404;53.974;-1.086;2023-02-19T11:35:34;102503.23;;;5.50;100.00
33265;BME280;31404;53.974;-1.086;2023-02-19T11:40:39;102492.45;;;5.87;100.00
33265;BME280;31404;53.974;-1.086;2023-02-19T11:45:38;102476.29;;;5.68;100.00
33265;BME280;31404;53.974;-1.086;2023-02-19T12:45:38;102471.42;;;6.54;100.00
33265;BME280;31404;53.974;-1.086;2023-02-19T13:00:38;102469.53;;;4.81;100.00
33265;BME280;31404;53.974;-1.086;2023-02-19T13:15:38;102432.10;;;5.96;100.00
33265;BME280;31404;53.974;-1.086;2023-02-19T13:20:36;102414.23;;;6.08;100.00
33265;BME280;31404;53.974;-1.086;2023-02-19T13:40:35;102348.65;;;6.65;100.00
33265;BME280;31404;53.974;-1.086;2023-02-19T13:50:35;102357.76;;;6.47;100.00
33265;BME280;31404;53.974;-1.086;2023-02-19T14:35:37;102327.64;;;6.87;100.00
33265;BME280;31404;53.974;-1.086;2023-02-19T14:40:37;102316.60;;;5.98;100.00
33265;BME280;31404;53.974;-1.086;2023-02-19T14:50:41;102313.00;;;6.37;100.00
33265;BME280;31404;53.974;-1.086;2023-02-19T14:55:35;102294.88;;;6.83;100.00
33265;BME280;31404;53.974;-1.086;2023-02-19T15:00:37;102290.10;;;6.63;100.00
33265;BME280;31404;53.974;-1.086;2023-02-19T15:05:36;102296.94;;;7.51;100.00
33265;BME280;31404;53.974;-1.086;2023-02-19T15:10:35;102286.97;;;7.59;100.00
33265;BME280;31404;53.974;-1.086;2023-02-19T15:15:37;102268.36;;;7.86;100.00
33265;BME280;31404;53.974;-1.086;2023-02-19T15:20:36;102241.31;;;8.47;100.00
33265;BME280;31404;53.974;-1.086;2023-02-19T15:25:36;102226.82;;;7.63;100.00
33265;BME280;31404;53.974;-1.086;2023-02-19T15:30:35;102211.82;;;7.10;100.00
33265;BME280;31404;53.974;-1.086;2023-02-19T15:35:35;102219.46;;;6.59;100.00
33265;BME280;31404;53.974;-1.086;2023-02-19T15:40:34;102234.55;;;7.36;100.00
33265;BME280;31404;53.974;-1.086;2023-02-19T15:55:37;102221.72;;;8.32;99.64
33265;BME280;31404;53.974;-1.086;2023-02-19T16:00:38;102223.87;;;9.15;95.56
33265;BME280;31404;53.974;-1.086;2023-02-19T16:05:35;102214.53;;;10.13;88.55
33265;BME280;31404;53.974;-1.086;2023-02-19T16:10:34;102200.59;;;9.72;88.69
33265;BME280;31404;53.974;-1.086;2023-02-19T16:15:35;102173.18;;;10.28;86.94
33265;BME280;31404;53.974;-1.086;2023-02-19T16:20:35;102170.19;;;9.78;87.63
33265;BME280;31404;53.974;-1.086;2023-02-19T16:25:37;102174.84;;;9.31;85.85
33265;BME280;31404;53.974;-1.086;2023-02-19T16:30:35;102181.59;;;10.26;85.62
33265;BME280;31404;53.974;-1.086;2023-02-19T16:35:35;102168.84;;;10.27;85.02
33265;BME280;31404;53.974;-1.086;2023-02-19T16:45:35;102203.94;;;12.12;73.82
33265;BME280;31404;53.974;-1.086;2023-02-19T16:50:35;102194.42;;;10.04;80.58
33265;BME280;31404;53.974;-1.086;2023-02-19T16:55:40;102195.30;;;7.03;95.16
33265;BME280;31404;53.974;-1.086;2023-02-19T17:00:35;102194.92;;;7.47;94.50
33265;BME280;31404;53.974;-1.086;2023-02-19T17:05:36;102211.73;;;7.68;93.38
33265;BME280;31404;53.974;-1.086;2023-02-19T17:10:34;102200.52;;;7.41;96.72
33265;BME280;31404;53.974;-1.086;2023-02-19T17:15:36;102189.39;;;6.25;100.00
33265;BME280;31404;53.974;-1.086;2023-02-19T17:20:35;102188.68;;;6.41;100.00
33265;BME280;31404;53.974;-1.086;2023-02-19T17:25:34;102176.38;;;7.65;96.87
33265;BME280;31404;53.974;-1.086;2023-02-19T17:30:39;102182.80;;;6.76;100.00
33265;BME280;31404;53.974;-1.086;2023-02-19T17:35:34;102182.41;;;6.93;100.00
33265;BME280;31404;53.974;-1.086;2023-02-19T17:40:35;102195.38;;;7.55;98.17
33265;BME280;31404;53.974;-1.086;2023-02-19T17:45:35;102195.63;;;8.00;95.09
33265;BME280;31404;53.974;-1.086;2023-02-19T17:50:35;102184.72;;;9.50;87.20
33265;BME280;31404;53.974;-1.086;2023-02-19T17:55:34;102182.60;;;9.64;86.08
33265;BME280;31404;53.974;-1.086;2023-02-19T18:00:35;102183.90;;;9.75;85.30
33265;BME280;31404;53.974;-1.086;2023-02-19T18:05:34;102178.57;;;8.53;92.07
33265;BME280;31404;53.974;-1.086;2023-02-19T18:10:35;102173.16;;;8.56;92.46
33265;BME280;31404;53.974;-1.086;2023-02-19T18:15:35;102174.04;;;8.99;89.77
33265;BME280;31404;53.974;-1.086;2023-02-19T18:20:35;102160.83;;;6.69;100.00
33265;BME280;31404;53.974;-1.086;2023-02-19T18:25:41;102146.00;;;6.44;100.00
33265;BME280;31404;53.974;-1.086;2023-02-19T18:30:34;102140.38;;;6.66;100.00
33265;BME280;31404;53.974;-1.086;2023-02-19T18:35:36;102138.18;;;7.25;99.34
33265;BME280;31404;53.974;-1.086;2023-02-19T18:40:35;102128.77;;;7.09;98.60
33265;BME280;31404;53.974;-1.086;2023-02-19T18:45:35;102128.22;;;8.02;95.10
33265;BME280;31404;53.974;-1.086;2023-02-19T18:50:34;102134.54;;;8.83;91.62
33265;BME280;31404;53.974;-1.086;2023-02-19T18:55:34;102135.08;;;7.86;93.80
33265;BME280;31404;53.974;-1.086;2023-02-19T19:00:35;102129.74;;;6.73;99.88
33265;BME280;31404;53.974;-1.086;2023-02-19T19:05:35;102127.63;;;6.63;100.00
33265;BME280;31404;53.974;-1.086;2023-02-19T19:10:35;102121.40;;;6.89;100.00
33265;BME280;31404;53.974;-1.086;2023-02-19T19:15:35;102129.72;;;7.43;100.00
33265;BME280;31404;53.974;-1.086;2023-02-19T19:20:34;102145.47;;;7.45;99.43
33265;BME280;31404;53.974;-1.086;2023-02-19T19:25:34;102157.32;;;6.48;100.00
33265;BME280;31404;53.974;-1.086;2023-02-19T19:30:35;102154.30;;;8.11;95.08
33265;BME280;31404;53.974;-1.086;2023-02-19T19:35:35;102144.01;;;8.15;93.72
33265;BME280;31404;53.974;-1.086;2023-02-19T19:40:35;102140.55;;;5.84;100.00
33265;BME280;31404;53.974;-1.086;2023-02-19T19:45:35;102138.41;;;7.92;98.25
33265;BME280;31404;53.974;-1.086;2023-02-19T19:50:35;102147.95;;;6.96;100.00
33265;BME280;31404;53.974;-1.086;2023-02-19T19:55:35;102135.42;;;7.36;96.94
33265;BME280;31404;53.974;-1.086;2023-02-19T20:00:34;102134.96;;;5.70;100.00
33265;BME280;31404;53.974;-1.086;2023-02-19T20:05:34;102126.50;;;6.60;100.00
33265;BME280;31404;53.974;-1.086;2023-02-19T20:10:34;102109.54;;;5.48;100.00
33265;BME280;31404;53.974;-1.086;2023-02-19T20:15:36;102105.49;;;6.47;100.00
33265;BME280;31404;53.974;-1.086;2023-02-19T20:20:35;102099.50;;;6.03;100.00
33265;BME280;31404;53.974;-1.086;2023-02-19T20:25:34;102086.20;;;4.97;100.00
33265;BME280;31404;53.974;-1.086;2023-02-19T20:30:34;102078.34;;;5.64;100.00
33265;BME280;31404;53.974;-1.086;2023-02-19T20:35:34;102077.28;;;5.54;100.00
33265;BME280;31404;53.974;-1.086;2023-02-19T20:40:34;102074.08;;;5.90;100.00
33265;BME280;31404;53.974;-1.086;2023-02-19T20:45:34;102076.37;;;6.20;100.00
33265;BME280;31404;53.974;-1.086;2023-02-19T20:50:34;102067.31;;;7.29;98.50
33265;BME280;31404;53.974;-1.086;2023-02-19T20:55:34;102064.93;;;7.53;95.86
33265;BME280;31404;53.974;-1.086;2023-02-19T21:00:35;102055.87;;;8.78;87.69
33265;BME280;31404;53.974;-1.086;2023-02-19T21:05:34;102048.29;;;8.94;87.83
33265;BME280;31404;53.974;-1.086;2023-02-19T21:10:34;102027.33;;;9.53;84.26
33265;BME280;31404;53.974;-1.086;2023-02-19T21:15:35;102042.22;;;10.00;82.02
33265;BME280;31404;53.974;-1.086;2023-02-19T21:20:34;102033.09;;;9.76;81.93
33265;BME280;31404;53.974;-1.086;2023-02-19T21:25:34;102024.81;;;9.28;84.16
33265;BME280;31404;53.974;-1.086;2023-02-19T21:30:35;102023.27;;;9.56;81.67
33265;BME280;31404;53.974;-1.086;2023-02-19T21:35:35;102016.07;;;10.87;77.78
33265;BME280;31404;53.974;-1.086;2023-02-19T21:40:35;102010.39;;;10.75;76.32
33265;BME280;31404;53.974;-1.086;2023-02-19T21:45:35;102011.17;;;10.16;80.15
33265;BME280;31404;53.974;-1.086;2023-02-19T21:55:34;102004.05;;;7.44;93.68
33265;BME280;31404;53.974;-1.086;2023-02-19T22:00:34;102005.20;;;6.37;100.00
33265;BME280;31404;53.974;-1.086;2023-02-19T22:05:34;101996.06;;;4.95;100.00
33265;BME280;31404;53.974;-1.086;2023-02-19T22:10:34;101995.09;;;5.33;100.00
33265;BME280;31404;53.974;-1.086;2023-02-19T22:15:34;101991.70;;;5.70;100.00
33265;BME280;31404;53.974;-1.086;2023-02-19T22:20:34;101978.94;;;6.58;100.00
33265;BME280;31404;53.974;-1.086;2023-02-19T22:25:34;101979.93;;;7.29;98.41
33265;BME280;31404;53.974;-1.086;2023-02-19T22:30:34;101982.29;;;7.94;94.18
33265;BME280;31404;53.974;-1.086;2023-02-19T22:35:34;101970.00;;;8.23;91.48
33265;BME280;31404;53.974;-1.086;2023-02-19T22:40:34;101956.37;;;8.55;89.64
33265;BME280;31404;53.974;-1.086;2023-02-19T22:45:34;101948.72;;;9.23;88.22
33265;BME280;31404;53.974;-1.086;2023-02-19T22:50:34;101958.15;;;7.68;96.46
33265;BME280;31404;53.974;-1.086;2023-02-19T22:55:34;101941.95;;;7.94;94.22
33265;BME280;31404;53.974;-1.086;2023-02-19T23:00:34;101942.48;;;6.86;100.00
33265;BME280;31404;53.974;-1.086;2023-02-19T23:05:35;101926.07;;;7.89;97.41
33265;BME280;31404;53.974;-1.086;2023-02-19T23:10:35;101925.91;;;7.28;100.00
33265;BME280;31404;53.974;-1.086;2023-02-19T23:15:35;101913.61;;;8.01;98.07
33265;BME280;31404;53.974;-1.086;2023-02-19T23:20:34;101908.56;;;8.50;95.48
33265;BME280;31404;53.974;-1.086;2023-02-19T23:25:34;101890.31;;;9.18;90.97
33265;BME280;31404;53.974;-1.086;2023-02-19T23:30:34;101889.86;;;8.80;93.35
33265;BME280;31404;53.974;-1.086;2023-02-19T23:35:34;101875.90;;;9.17;93.70
33265;BME280;31404;53.974;-1.086;2023-02-19T23:40:35;101861.11;;;8.65;97.02
33265;BME280;31404;53.974;-1.086;2023-02-19T23:45:34;101844.91;;;7.92;100.00
33265;BME280;31404;53.974;-1.086;2023-02-19T23:50:34;101833.37;;;8.84;95.71
33265;BME280;31404;53.974;-1.086;2023-02-19T23:55:34;101823.07;;;8.77;98.38
